createdAt,value
2019-05-07T00:00:53.063Z,1.80
2019-05-07T00:02:08.558Z,1.70
2019-05-07T00:03:12.237Z,1.45
2019-05-07T00:04:13.233Z,1.40
2019-05-07T00:05:14.609Z,1.65
2019-05-07T00:06:15.998Z,1.83
2019-05-07T00:07:18.383Z,1.70
2019-05-07T00:08:19.812Z,1.40
2019-05-07T00:09:23.314Z,1.92
2019-05-07T00:10:24.846Z,1.62
2019-05-07T00:11:26.573Z,1.37
2019-05-07T00:12:27.973Z,1.35
2019-05-07T00:13:29.395Z,1.82
2019-05-07T00:14:32.052Z,1.37
2019-05-07T00:15:34.180Z,1.32
2019-05-07T00:16:35.661Z,1.82
2019-05-07T00:17:37.214Z,1.70
2019-05-07T00:18:38.640Z,1.30
2019-05-07T00:19:40.017Z,1.32
2019-05-07T00:20:42.288Z,1.50
2019-05-07T00:21:43.890Z,1.50
2019-05-07T00:22:45.292Z,1.60
2019-05-07T00:23:46.703Z,2.00
2019-05-07T00:24:48.192Z,1.47
2019-05-07T00:25:49.577Z,1.40
2019-05-07T00:26:53.032Z,1.42
2019-05-07T00:27:54.261Z,1.60
2019-05-07T00:28:55.787Z,1.22
2019-05-07T00:29:57.269Z,1.62
2019-05-07T00:30:58.829Z,1.60
2019-05-07T00:32:02.730Z,1.27
2019-05-07T00:33:03.512Z,1.55
2019-05-07T00:34:05.004Z,1.30
2019-05-07T00:35:08.298Z,1.52
2019-05-07T00:36:15.405Z,1.35
2019-05-07T00:37:22.010Z,1.47
2019-05-07T00:38:25.474Z,1.30
2019-05-07T00:39:45.360Z,1.42
2019-05-07T00:41:05.285Z,1.65
2019-05-07T00:42:12.682Z,1.50
2019-05-07T00:43:18.830Z,1.10
2019-05-07T00:44:22.085Z,1.60
2019-05-07T00:45:43.612Z,1.50
2019-05-07T00:46:45.301Z,1.37
2019-05-07T00:47:46.693Z,1.40
2019-05-07T00:48:48.079Z,1.27
2019-05-07T00:49:49.561Z,1.62
2019-05-07T00:50:52.871Z,1.37
2019-05-07T00:51:54.264Z,1.25
2019-05-07T00:52:55.677Z,1.20
2019-05-07T00:53:57.600Z,1.22
2019-05-07T00:54:59.000Z,1.25
2019-05-07T00:56:01.911Z,1.50
2019-05-07T00:57:03.403Z,1.47
2019-05-07T00:58:04.799Z,1.25
2019-05-07T00:59:06.168Z,1.45
2019-05-07T01:00:08.953Z,1.40
2019-05-07T01:01:12.951Z,1.57
2019-05-07T01:02:13.992Z,1.22
2019-05-07T01:03:15.368Z,1.35
2019-05-07T01:04:16.763Z,1.62
2019-05-07T01:05:18.137Z,1.20
2019-05-07T01:06:19.525Z,1.60
2019-05-07T01:07:22.912Z,1.37
2019-05-07T01:08:24.607Z,1.50
2019-05-07T01:09:25.999Z,1.70
2019-05-07T01:10:27.390Z,1.57
2019-05-07T01:11:28.891Z,1.70
2019-05-07T01:12:32.684Z,1.47
2019-05-07T01:13:33.679Z,1.60
2019-05-07T01:14:35.071Z,1.60
2019-05-07T01:15:36.464Z,1.35
2019-05-07T01:16:37.853Z,1.52
2019-05-07T01:17:42.398Z,1.50
2019-05-07T01:18:43.612Z,1.47
2019-05-07T01:19:45.028Z,1.70
2019-05-07T01:20:46.449Z,1.20
2019-05-07T01:21:48.852Z,1.62
2019-05-07T01:22:50.243Z,1.75
2019-05-07T01:23:52.337Z,1.37
2019-05-07T01:24:54.009Z,1.50
2019-05-07T01:25:55.510Z,1.57
2019-05-07T01:26:57.028Z,1.80
2019-05-07T01:27:58.542Z,1.57
2019-05-07T01:29:02.488Z,1.52
2019-05-07T01:30:04.367Z,1.60
2019-05-07T01:31:06.258Z,1.30
2019-05-07T01:32:15.566Z,1.60
2019-05-07T01:33:18.850Z,1.63
2019-05-07T01:34:27.927Z,1.57
2019-05-07T01:35:43.365Z,2.05
2019-05-07T01:36:44.761Z,1.45
2019-05-07T01:37:46.278Z,1.60
2019-05-07T01:38:47.668Z,1.82
2019-05-07T01:39:49.056Z,1.70
2019-05-07T01:40:52.078Z,1.45
2019-05-07T01:41:53.633Z,1.55
2019-05-07T01:42:55.056Z,1.42
2019-05-07T01:43:56.428Z,1.47
2019-05-07T01:44:57.932Z,1.42
2019-05-07T01:45:59.318Z,1.40
2019-05-07T01:47:02.554Z,1.65
2019-05-07T01:48:04.440Z,1.27
2019-05-07T01:49:06.988Z,1.70
2019-05-07T01:50:08.474Z,1.25
2019-05-07T01:51:09.965Z,1.80
2019-05-07T01:52:13.366Z,1.70
2019-05-07T01:53:14.694Z,1.40
2019-05-07T01:54:16.086Z,1.67
2019-05-07T01:55:17.482Z,1.90
2019-05-07T01:56:18.862Z,1.27
2019-05-07T01:57:20.268Z,1.60
2019-05-07T01:58:22.194Z,1.70
2019-05-07T01:59:23.645Z,1.50
2019-05-07T02:00:25.135Z,1.37
2019-05-07T02:01:26.527Z,1.30
2019-05-07T02:02:31.932Z,1.30
2019-05-07T02:03:52.777Z,1.72
2019-05-07T02:04:56.220Z,1.27
2019-05-07T02:06:16.064Z,1.60
2019-05-07T02:07:25.411Z,1.62
2019-05-07T02:08:45.435Z,1.22
2019-05-07T02:09:48.749Z,1.50
2019-05-07T02:10:52.351Z,1.20
2019-05-07T02:12:02.541Z,1.42
2019-05-07T02:13:04.104Z,1.65
2019-05-07T02:14:05.496Z,1.35
2019-05-07T02:15:07.882Z,1.45
2019-05-07T02:16:09.272Z,1.42
2019-05-07T02:17:13.619Z,1.22
2019-05-07T02:18:14.952Z,1.62
2019-05-07T02:19:16.340Z,1.10
2019-05-07T02:20:17.749Z,1.47
2019-05-07T02:21:19.162Z,1.12
2019-05-07T02:22:22.655Z,1.20
2019-05-07T02:23:24.398Z,1.17
2019-05-07T02:24:25.900Z,1.40
2019-05-07T02:25:27.272Z,1.10
2019-05-07T02:26:28.679Z,1.07
2019-05-07T02:27:30.048Z,1.37
2019-05-07T02:28:32.934Z,1.40
2019-05-07T02:29:34.660Z,0.93
2019-05-07T02:30:36.178Z,1.05
2019-05-07T02:31:37.566Z,0.90
2019-05-07T02:32:39.221Z,1.22
2019-05-07T02:33:43.356Z,1.20
2019-05-07T02:34:44.485Z,1.10
2019-05-07T02:35:46.001Z,0.90
2019-05-07T02:36:47.402Z,1.17
2019-05-07T02:37:55.562Z,0.90
2019-05-07T02:39:12.820Z,1.40
2019-05-07T02:40:16.415Z,0.90
2019-05-07T02:41:33.054Z,1.30
2019-05-07T02:42:34.820Z,0.93
2019-05-07T02:43:36.303Z,0.80
2019-05-07T02:44:57.546Z,1.00
2019-05-07T02:46:17.323Z,1.00
2019-05-07T02:47:08.558Z,1.10
2019-05-07T02:48:12.867Z,1.32
2019-05-07T02:49:23.512Z,1.00
2019-05-07T02:50:26.341Z,1.07
2019-05-07T02:51:33.330Z,1.00
2019-05-07T02:52:54.027Z,0.85
2019-05-07T02:54:03.651Z,1.10
2019-05-07T02:55:06.962Z,1.20
2019-05-07T02:56:08.371Z,0.95
2019-05-07T02:57:13.319Z,0.72
2019-05-07T02:58:13.835Z,0.93
2019-05-07T02:59:15.428Z,1.07
2019-05-07T03:00:19.532Z,0.95
2019-05-07T03:01:22.658Z,1.12
2019-05-07T03:02:24.327Z,0.80
2019-05-07T03:03:27.016Z,1.05
2019-05-07T03:04:28.481Z,0.80
2019-05-07T03:05:30.772Z,1.22
2019-05-07T03:06:33.870Z,0.82
2019-05-07T03:07:35.447Z,1.12
2019-05-07T03:08:36.837Z,1.10
2019-05-07T03:09:38.215Z,1.00
2019-05-07T03:10:39.597Z,0.90
2019-05-07T03:11:43.260Z,0.75
2019-05-07T03:12:44.277Z,0.93
2019-05-07T03:13:45.671Z,0.93
2019-05-07T03:14:47.036Z,0.93
2019-05-07T03:15:48.434Z,0.78
2019-05-07T03:16:53.280Z,1.12
2019-05-07T03:17:53.896Z,1.00
2019-05-07T03:18:55.431Z,1.20
2019-05-07T03:19:57.905Z,0.80
2019-05-07T03:21:03.389Z,0.95
2019-05-07T03:22:04.503Z,1.00
2019-05-07T03:23:06.581Z,1.02
2019-05-07T03:24:09.881Z,0.70
2019-05-07T03:25:13.648Z,0.70
2019-05-07T03:26:17.055Z,0.90
2019-05-07T03:27:18.441Z,0.97
2019-05-07T03:28:23.163Z,0.80
2019-05-07T03:29:25.266Z,0.90
2019-05-07T03:30:28.550Z,0.93
2019-05-07T03:31:36.216Z,0.90
2019-05-07T03:32:39.394Z,1.35
2019-05-07T03:33:47.062Z,0.70
2019-05-07T03:34:58.108Z,1.00
2019-05-07T03:36:06.375Z,0.80
2019-05-07T03:37:06.878Z,0.95
2019-05-07T03:38:08.330Z,0.90
2019-05-07T03:39:09.703Z,0.90
2019-05-07T03:40:14.076Z,0.75
2019-05-07T03:41:14.482Z,0.80
2019-05-07T03:42:15.874Z,0.90
2019-05-07T03:43:17.260Z,0.70
2019-05-07T03:44:37.522Z,1.00
2019-05-07T03:45:43.277Z,0.80
2019-05-07T03:46:54.448Z,0.80
2019-05-07T03:47:54.172Z,0.80
2019-05-07T03:48:55.897Z,0.85
2019-05-07T03:49:57.272Z,0.60
2019-05-07T03:50:58.674Z,0.90
2019-05-07T03:52:00.048Z,0.75
2019-05-07T03:53:02.745Z,0.80
2019-05-07T03:54:04.611Z,0.90
2019-05-07T03:55:07.364Z,0.90
2019-05-07T03:56:08.758Z,0.72
2019-05-07T03:57:11.516Z,1.15
2019-05-07T03:58:14.645Z,0.80
2019-05-07T03:59:16.345Z,1.12
2019-05-07T04:00:17.853Z,0.78
2019-05-07T04:01:19.265Z,0.80
2019-05-07T04:02:23.696Z,0.80
2019-05-07T04:03:24.720Z,0.85
2019-05-07T04:04:26.665Z,0.88
2019-05-07T04:05:28.028Z,0.80
2019-05-07T04:06:29.428Z,0.80
2019-05-07T04:07:33.680Z,0.62
2019-05-07T04:08:34.201Z,0.60
2019-05-07T04:09:35.589Z,0.82
2019-05-07T04:10:36.972Z,0.55
2019-05-07T04:11:38.361Z,1.02
2019-05-07T04:12:39.757Z,0.75
2019-05-07T04:13:44.029Z,0.88
2019-05-07T04:14:44.445Z,0.85
2019-05-07T04:15:45.829Z,0.70
2019-05-07T04:16:47.325Z,0.70
2019-05-07T04:17:48.809Z,0.70
2019-05-07T04:18:52.867Z,0.85
2019-05-07T04:19:53.601Z,0.80
2019-05-07T04:20:55.008Z,1.07
2019-05-07T04:21:56.482Z,0.80
2019-05-07T04:22:57.957Z,0.77
2019-05-07T04:24:13.277Z,0.62
2019-05-07T04:25:18.542Z,0.90
2019-05-07T04:26:27.693Z,0.70
2019-05-07T04:27:33.810Z,0.78
2019-05-07T04:28:37.123Z,0.85
2019-05-07T04:29:38.537Z,0.70
2019-05-07T04:30:40.129Z,0.80
2019-05-07T04:31:43.505Z,0.70
2019-05-07T04:32:46.722Z,0.80
2019-05-07T04:33:48.202Z,0.67
2019-05-07T04:34:54.378Z,0.65
2019-05-07T04:35:57.701Z,0.85
2019-05-07T04:36:59.118Z,0.80
2019-05-07T04:38:05.408Z,0.80
2019-05-07T04:39:06.322Z,0.80
2019-05-07T04:40:07.830Z,1.05
2019-05-07T04:41:09.232Z,0.60
2019-05-07T04:42:13.287Z,0.60
2019-05-07T04:43:14.030Z,0.80
2019-05-07T04:44:15.618Z,0.75
2019-05-07T04:45:17.115Z,0.70
2019-05-07T04:46:18.622Z,0.88
2019-05-07T04:47:34.490Z,1.05
2019-05-07T04:48:23.672Z,0.90
2019-05-07T04:49:25.199Z,0.90
2019-05-07T04:50:39.295Z,1.00
2019-05-07T04:51:33.947Z,0.80
2019-05-07T04:52:36.631Z,0.75
2019-05-07T04:53:39.053Z,0.70
2019-05-07T04:54:43.471Z,0.80
2019-05-07T04:55:43.885Z,0.88
2019-05-07T04:56:46.303Z,1.17
2019-05-07T04:57:47.675Z,0.80
2019-05-07T04:58:52.821Z,0.77
2019-05-07T04:59:57.020Z,0.70
2019-05-07T05:00:58.527Z,0.65
2019-05-07T05:02:13.355Z,1.15
2019-05-07T05:03:15.903Z,0.78
2019-05-07T05:04:26.869Z,0.70
2019-05-07T05:05:23.512Z,0.70
2019-05-07T05:06:24.478Z,0.75
2019-05-07T05:07:25.937Z,0.75
2019-05-07T05:08:27.420Z,0.72
2019-05-07T05:09:28.831Z,0.72
2019-05-07T05:10:30.205Z,1.00
2019-05-07T05:11:33.607Z,0.50
2019-05-07T05:12:34.895Z,0.85
2019-05-07T05:13:36.279Z,0.70
2019-05-07T05:14:37.667Z,0.90
2019-05-07T05:15:39.068Z,0.85
2019-05-07T05:16:42.499Z,0.95
2019-05-07T05:17:49.956Z,0.95
2019-05-07T05:18:47.328Z,0.80
2019-05-07T05:19:48.746Z,0.95
2019-05-07T05:21:02.806Z,1.00
2019-05-07T05:22:12.824Z,1.02
2019-05-07T05:23:22.742Z,0.98
2019-05-07T05:24:29.248Z,1.00
2019-05-07T05:25:32.532Z,1.10
2019-05-07T05:26:33.924Z,0.85
2019-05-07T05:27:35.311Z,0.93
2019-05-07T05:28:36.712Z,0.90
2019-05-07T05:29:38.424Z,0.75
2019-05-07T05:30:42.404Z,0.90
2019-05-07T05:31:44.157Z,0.82
2019-05-07T05:32:45.664Z,0.80
2019-05-07T05:33:47.137Z,1.10
2019-05-07T05:34:48.520Z,0.95
2019-05-07T05:35:52.394Z,0.80
2019-05-07T05:36:53.359Z,0.68
2019-05-07T05:37:54.757Z,0.70
2019-05-07T05:38:56.148Z,0.90
2019-05-07T05:40:06.178Z,0.90
2019-05-07T05:41:02.710Z,1.00
2019-05-07T05:42:06.228Z,0.60
2019-05-07T05:43:24.727Z,1.15
2019-05-07T05:44:32.020Z,0.90
2019-05-07T05:45:35.652Z,0.65
2019-05-07T05:46:37.029Z,0.70
2019-05-07T05:47:38.426Z,0.53
2019-05-07T05:48:39.826Z,0.70
2019-05-07T05:49:42.879Z,0.70
2019-05-07T05:51:03.047Z,0.80
2019-05-07T05:52:09.136Z,0.65
2019-05-07T05:53:27.441Z,0.75
2019-05-07T05:54:33.539Z,0.70
2019-05-07T05:55:35.053Z,0.70
2019-05-07T05:56:53.427Z,0.80
2019-05-07T05:57:56.740Z,0.57
2019-05-07T05:59:25.460Z,0.60
2019-05-07T06:00:42.304Z,0.90
2019-05-07T06:02:03.407Z,0.70
2019-05-07T06:03:05.978Z,0.78
2019-05-07T06:04:14.813Z,0.60
2019-05-07T06:05:34.869Z,0.60
2019-05-07T06:06:47.236Z,0.60
2019-05-07T06:08:05.620Z,0.72
2019-05-07T06:09:21.960Z,0.60
2019-05-07T06:10:25.333Z,0.50
2019-05-07T06:13:01.765Z,0.53
2019-05-07T06:14:12.773Z,0.55
2019-05-07T06:15:28.116Z,0.68
2019-05-07T06:16:36.648Z,0.70
2019-05-07T06:17:39.409Z,0.50
2019-05-07T06:18:48.430Z,0.40
2019-05-07T06:19:51.903Z,0.40
2019-05-07T06:21:04.520Z,0.60
2019-05-07T06:22:24.552Z,0.37
2019-05-07T06:23:33.007Z,0.50
2019-05-07T06:24:39.124Z,0.45
2019-05-07T06:25:42.834Z,0.42
2019-05-07T06:26:44.504Z,0.42
2019-05-07T06:27:46.109Z,0.40
2019-05-07T06:28:47.514Z,0.50
2019-05-07T06:29:48.921Z,0.50
2019-05-07T06:30:52.558Z,0.30
2019-05-07T06:32:04.087Z,0.40
2019-05-07T06:33:06.458Z,0.30
2019-05-07T06:34:07.853Z,0.35
2019-05-07T06:35:09.320Z,0.47
2019-05-07T06:36:12.510Z,0.40
2019-05-07T06:37:14.856Z,0.40
2019-05-07T06:38:16.233Z,0.30
2019-05-07T06:39:22.249Z,0.40
2019-05-07T06:40:37.780Z,0.40
2019-05-07T06:41:57.458Z,0.30
2019-05-07T06:43:06.548Z,0.40
2019-05-07T06:44:09.841Z,0.30
2019-05-07T06:45:14.036Z,0.20
2019-05-07T06:46:15.422Z,0.40
2019-05-07T06:47:16.913Z,0.30
2019-05-07T06:48:33.574Z,0.50
2019-05-07T06:49:22.273Z,0.35
2019-05-07T06:50:23.799Z,0.30
2019-05-07T06:51:25.182Z,0.20
2019-05-07T06:52:26.573Z,0.40
2019-05-07T06:53:30.085Z,0.20
2019-05-07T06:54:32.194Z,0.40
2019-05-07T06:55:33.668Z,0.23
2019-05-07T06:56:35.061Z,0.30
2019-05-07T06:57:36.650Z,0.37
2019-05-07T06:58:41.920Z,0.30
2019-05-07T06:59:45.137Z,0.30
2019-05-07T07:00:52.757Z,0.30
2019-05-07T07:01:56.035Z,0.37
2019-05-07T07:02:59.343Z,0.40
2019-05-07T07:04:02.931Z,0.33
2019-05-07T07:05:25.911Z,0.20
2019-05-07T07:06:29.411Z,0.30
2019-05-07T07:07:37.077Z,0.40
2019-05-07T07:08:41.966Z,0.20
2019-05-07T07:09:45.308Z,0.28
2019-05-07T07:11:05.872Z,0.30
2019-05-07T07:12:09.167Z,0.28
2019-05-07T07:13:11.972Z,0.40
2019-05-07T07:14:13.541Z,0.37
2019-05-07T07:15:15.041Z,0.33
2019-05-07T07:16:16.413Z,0.20
2019-05-07T07:17:18.011Z,0.40
2019-05-07T07:18:19.381Z,0.40
2019-05-07T07:19:23.114Z,0.30
2019-05-07T07:20:24.112Z,0.35
2019-05-07T07:21:25.496Z,0.30
2019-05-07T07:22:26.881Z,0.42
2019-05-07T07:23:28.371Z,0.33
2019-05-07T07:24:29.757Z,0.30
2019-05-07T07:25:32.588Z,0.30
2019-05-07T07:26:35.762Z,0.40
2019-05-07T07:27:37.162Z,0.30
2019-05-07T07:28:38.547Z,0.30
2019-05-07T07:29:44.856Z,0.40
2019-05-07T07:30:49.632Z,0.37
2019-05-07T07:32:12.735Z,0.30
2019-05-07T07:33:16.109Z,0.20
2019-05-07T07:34:17.609Z,0.20
2019-05-07T07:35:19.100Z,0.30
2019-05-07T07:36:22.648Z,0.30
2019-05-07T07:37:32.091Z,0.30
2019-05-07T07:38:34.751Z,0.30
2019-05-07T07:39:36.127Z,0.45
2019-05-07T07:40:42.336Z,0.30
2019-05-07T07:41:52.231Z,0.40
2019-05-07T07:42:53.824Z,0.40
2019-05-07T07:43:55.234Z,0.30
2019-05-07T07:45:12.379Z,0.37
2019-05-07T07:46:16.403Z,0.40
2019-05-07T07:47:17.149Z,0.30
2019-05-07T07:48:18.545Z,0.40
2019-05-07T07:49:22.068Z,0.30
2019-05-07T07:50:23.217Z,0.33
2019-05-07T07:51:37.801Z,0.25
2019-05-07T07:52:28.013Z,0.40
2019-05-07T07:53:32.326Z,0.30
2019-05-07T07:54:32.699Z,0.20
2019-05-07T07:55:35.988Z,0.20
2019-05-07T07:56:52.972Z,0.30
2019-05-07T07:57:56.372Z,0.30
2019-05-07T07:59:02.509Z,0.20
2019-05-07T08:00:07.303Z,0.30
2019-05-07T08:01:12.233Z,0.25
2019-05-07T08:02:15.603Z,0.30
2019-05-07T08:03:17.020Z,0.40
2019-05-07T08:04:18.402Z,0.20
2019-05-07T08:05:21.810Z,0.20
2019-05-07T08:06:25.010Z,0.20
2019-05-07T08:07:26.393Z,0.40
2019-05-07T08:08:27.907Z,0.50
2019-05-07T08:09:32.446Z,0.28
2019-05-07T08:10:33.889Z,0.20
2019-05-07T08:11:35.502Z,0.40
2019-05-07T08:12:36.914Z,0.30
2019-05-07T08:13:38.331Z,0.20
2019-05-07T08:14:39.693Z,0.35
2019-05-07T08:15:42.974Z,0.20
2019-05-07T08:16:44.373Z,0.20
2019-05-07T08:17:47.283Z,0.30
2019-05-07T08:18:48.668Z,0.30
2019-05-07T08:19:51.924Z,0.45
2019-05-07T08:20:53.386Z,0.35
2019-05-07T08:21:54.803Z,0.30
2019-05-07T08:22:56.416Z,0.33
2019-05-07T08:23:57.920Z,0.20
2019-05-07T08:24:59.292Z,0.30
2019-05-07T08:26:02.543Z,0.30
2019-05-07T08:27:04.068Z,0.35
2019-05-07T08:28:05.468Z,0.30
2019-05-07T08:29:06.952Z,0.30
2019-05-07T08:30:11.852Z,0.20
2019-05-07T08:31:18.349Z,0.20
2019-05-07T08:32:32.537Z,0.33
2019-05-07T08:33:35.754Z,0.25
2019-05-07T08:34:42.800Z,0.37
2019-05-07T08:35:46.180Z,0.40
2019-05-07T08:36:47.603Z,0.30
2019-05-07T08:37:49.009Z,0.30
2019-05-07T08:38:53.116Z,0.25
2019-05-07T08:39:54.975Z,0.40
2019-05-07T08:40:56.252Z,0.30
2019-05-07T08:41:57.757Z,0.50
2019-05-07T08:42:59.232Z,0.40
2019-05-07T08:44:11.597Z,0.60
2019-05-07T08:45:27.908Z,0.40
2019-05-07T08:46:32.837Z,0.40
2019-05-07T08:47:45.040Z,0.40
2019-05-07T08:48:48.338Z,0.40
2019-05-07T08:49:49.751Z,0.55
2019-05-07T08:50:52.537Z,0.62
2019-05-07T08:51:59.820Z,0.35
2019-05-07T08:53:02.811Z,0.60
2019-05-07T08:54:04.395Z,0.40
2019-05-07T08:55:07.009Z,0.60
2019-05-07T08:56:08.386Z,0.50
2019-05-07T08:57:11.732Z,0.60
2019-05-07T08:58:13.174Z,0.60
2019-05-07T08:59:14.780Z,0.70
2019-05-07T09:00:22.215Z,0.78
2019-05-07T09:01:23.284Z,1.00
2019-05-07T09:02:24.667Z,0.68
2019-05-07T09:03:42.878Z,0.78
2019-05-07T09:04:44.580Z,0.53
2019-05-07T09:05:45.988Z,0.60
2019-05-07T09:06:47.366Z,0.60
2019-05-07T09:07:48.759Z,0.68
2019-05-07T09:08:50.136Z,0.60
2019-05-07T09:09:52.334Z,0.62
2019-05-07T09:10:54.194Z,0.68
2019-05-07T09:11:55.992Z,0.72
2019-05-07T09:12:57.406Z,0.55
2019-05-07T09:13:58.809Z,0.70
2019-05-07T09:15:02.200Z,1.00
2019-05-07T09:16:03.858Z,0.60
2019-05-07T09:17:06.338Z,0.80
2019-05-07T09:18:07.732Z,0.60
2019-05-07T09:19:09.104Z,0.57
2019-05-07T09:20:12.560Z,0.90
2019-05-07T09:21:13.990Z,0.70
2019-05-07T09:22:15.402Z,0.70
2019-05-07T09:23:16.878Z,0.75
2019-05-07T09:24:18.295Z,0.70
2019-05-07T09:25:19.704Z,0.60
2019-05-07T09:26:29.240Z,0.80
2019-05-07T09:27:32.870Z,0.70
2019-05-07T09:28:44.893Z,0.82
2019-05-07T09:29:48.168Z,0.70
2019-05-07T09:30:52.473Z,0.90
2019-05-07T09:31:59.406Z,0.70
2019-05-07T09:33:02.734Z,1.10
2019-05-07T09:34:04.142Z,0.70
2019-05-07T09:35:07.754Z,0.60
2019-05-07T09:36:12.123Z,0.50
2019-05-07T09:37:22.642Z,0.60
2019-05-07T09:38:24.246Z,0.75
2019-05-07T09:39:25.657Z,0.95
2019-05-07T09:40:27.032Z,0.60
2019-05-07T09:41:28.507Z,0.78
2019-05-07T09:42:29.899Z,0.78
2019-05-07T09:43:32.507Z,0.70
2019-05-07T09:44:34.228Z,0.78
2019-05-07T09:45:35.640Z,1.10
2019-05-07T09:46:37.044Z,0.70
2019-05-07T09:47:38.464Z,1.67
2019-05-07T09:48:41.712Z,1.20
2019-05-07T09:49:43.257Z,0.80
2019-05-07T09:50:44.631Z,0.80
2019-05-07T09:51:46.132Z,1.02
2019-05-07T09:52:47.552Z,0.90
2019-05-07T09:53:49.059Z,0.90
2019-05-07T09:54:52.203Z,0.80
2019-05-07T09:55:53.777Z,0.57
2019-05-07T09:56:55.199Z,0.80
2019-05-07T09:57:56.581Z,0.70
2019-05-07T09:58:58.072Z,0.80
2019-05-07T10:00:02.042Z,0.82
2019-05-07T10:01:03.244Z,0.53
2019-05-07T10:02:04.847Z,1.15
2019-05-07T10:03:06.377Z,0.62
2019-05-07T10:04:07.910Z,0.80
2019-05-07T10:05:09.721Z,0.80
2019-05-07T10:06:12.446Z,0.88
2019-05-07T10:07:14.149Z,1.00
2019-05-07T10:08:15.552Z,1.02
2019-05-07T10:09:17.924Z,1.10
2019-05-07T10:10:19.620Z,0.78
2019-05-07T10:11:25.674Z,1.00
2019-05-07T10:12:35.298Z,1.10
2019-05-07T10:13:52.297Z,0.90
2019-05-07T10:14:54.040Z,1.00
2019-05-07T10:15:55.461Z,0.70
2019-05-07T10:17:04.392Z,0.78
2019-05-07T10:18:13.484Z,0.75
2019-05-07T10:19:14.924Z,0.75
2019-05-07T10:20:22.130Z,0.72
2019-05-07T10:21:22.097Z,0.60
2019-05-07T10:22:23.691Z,0.70
2019-05-07T10:23:25.084Z,0.70
2019-05-07T10:24:26.403Z,1.07
2019-05-07T10:25:30.184Z,0.57
2019-05-07T10:26:32.240Z,0.80
2019-05-07T10:27:34.060Z,0.65
2019-05-07T10:28:35.664Z,0.80
2019-05-07T10:29:37.612Z,0.75
2019-05-07T10:30:39.129Z,0.70
2019-05-07T10:31:42.401Z,0.70
2019-05-07T10:32:43.956Z,0.75
2019-05-07T10:33:45.464Z,0.75
2019-05-07T10:34:46.865Z,0.70
2019-05-07T10:35:49.562Z,0.90
2019-05-07T10:36:52.342Z,0.80
2019-05-07T10:37:54.223Z,1.00
2019-05-07T10:38:55.629Z,0.78
2019-05-07T10:39:57.038Z,0.80
2019-05-07T10:40:58.445Z,0.82
2019-05-07T10:42:01.816Z,0.88
2019-05-07T10:43:04.505Z,0.72
2019-05-07T10:44:06.140Z,0.75
2019-05-07T10:45:10.034Z,0.78
2019-05-07T10:46:25.525Z,0.78
2019-05-07T10:47:41.887Z,0.82
2019-05-07T10:48:45.270Z,0.90
2019-05-07T10:49:48.567Z,0.60
2019-05-07T10:50:51.852Z,0.90
2019-05-07T10:51:54.239Z,0.90
2019-05-07T10:52:55.725Z,0.75
2019-05-07T10:53:57.217Z,0.70
2019-05-07T10:55:00.008Z,0.70
2019-05-07T10:56:02.718Z,0.60
2019-05-07T10:57:05.199Z,0.62
2019-05-07T10:58:06.728Z,0.70
2019-05-07T10:59:08.197Z,0.57
2019-05-07T11:00:12.460Z,0.60
2019-05-07T11:01:16.188Z,0.60
2019-05-07T11:02:19.477Z,0.70
2019-05-07T11:03:21.959Z,0.50
2019-05-07T11:04:23.665Z,0.70
2019-05-07T11:05:25.169Z,0.68
2019-05-07T11:06:26.692Z,0.88
2019-05-07T11:07:28.089Z,0.68
2019-05-07T11:08:29.486Z,0.78
2019-05-07T11:09:32.694Z,0.60
2019-05-07T11:10:34.272Z,0.70
2019-05-07T11:11:35.798Z,0.50
2019-05-07T11:12:37.189Z,0.40
2019-05-07T11:13:38.669Z,0.60
2019-05-07T11:14:40.185Z,0.70
2019-05-07T11:15:43.499Z,0.50
2019-05-07T11:16:46.949Z,0.80
2019-05-07T11:17:52.098Z,0.50
2019-05-07T11:18:53.632Z,0.42
2019-05-07T11:19:55.129Z,0.50
2019-05-07T11:20:56.621Z,0.70
2019-05-07T11:21:58.020Z,0.60
2019-05-07T11:22:59.396Z,0.68
2019-05-07T11:24:02.868Z,0.40
2019-05-07T11:25:05.669Z,0.60
2019-05-07T11:26:07.071Z,0.80
2019-05-07T11:27:08.448Z,0.72
2019-05-07T11:28:12.121Z,0.70
2019-05-07T11:29:13.174Z,0.80
2019-05-07T11:30:15.534Z,0.60
2019-05-07T11:31:16.902Z,0.65
2019-05-07T11:32:18.414Z,0.72
2019-05-07T11:33:21.871Z,0.75
2019-05-07T11:34:23.409Z,0.50
2019-05-07T11:35:24.824Z,0.78
2019-05-07T11:36:26.433Z,0.95
2019-05-07T11:37:27.849Z,0.80
2019-05-07T11:38:29.272Z,0.90
2019-05-07T11:39:30.754Z,0.80
2019-05-07T11:40:34.878Z,1.00
2019-05-07T11:41:53.830Z,0.70
2019-05-07T11:43:13.028Z,1.20
2019-05-07T11:44:16.725Z,1.02
2019-05-07T11:45:20.010Z,0.82
2019-05-07T11:46:23.383Z,0.70
2019-05-07T11:47:26.678Z,0.60
2019-05-07T11:48:28.160Z,0.90
2019-05-07T11:49:48.824Z,0.80
2019-05-07T11:51:04.530Z,1.00
2019-05-07T11:52:07.885Z,0.70
2019-05-07T11:53:11.175Z,0.80
2019-05-07T11:54:13.876Z,0.82
2019-05-07T11:55:15.271Z,0.80
2019-05-07T11:56:16.651Z,0.70
2019-05-07T11:57:18.154Z,0.70
2019-05-07T11:58:19.528Z,0.70
2019-05-07T11:59:22.044Z,0.90
2019-05-07T12:00:34.314Z,1.00
2019-05-07T12:01:46.760Z,0.80
2019-05-07T12:02:43.288Z,0.50
2019-05-07T12:03:44.686Z,0.98
2019-05-07T12:04:46.077Z,0.90
2019-05-07T12:05:47.500Z,0.70
2019-05-07T12:06:48.871Z,0.90
2019-05-07T12:07:50.270Z,0.75
2019-05-07T12:08:52.230Z,0.70
2019-05-07T12:09:53.665Z,0.80
2019-05-07T12:10:55.070Z,0.85
2019-05-07T12:11:56.566Z,1.05
2019-05-07T12:12:57.952Z,0.65
2019-05-07T12:13:59.345Z,0.93
2019-05-07T12:15:02.502Z,0.70
2019-05-07T12:16:05.929Z,0.70
2019-05-07T12:17:07.529Z,0.80
2019-05-07T12:18:08.933Z,0.72
2019-05-07T12:19:13.055Z,0.95
2019-05-07T12:20:14.424Z,1.27
2019-05-07T12:21:20.243Z,0.70
2019-05-07T12:22:38.239Z,0.80
2019-05-07T12:23:39.645Z,0.53
2019-05-07T12:24:41.778Z,0.70
2019-05-07T12:25:43.374Z,0.70
2019-05-07T12:26:44.905Z,0.60
2019-05-07T12:27:48.682Z,0.70
2019-05-07T12:28:52.071Z,1.12
2019-05-07T12:29:53.376Z,0.60
2019-05-07T12:31:05.654Z,0.60
2019-05-07T12:32:08.948Z,0.65
2019-05-07T12:33:18.119Z,0.60
2019-05-07T12:34:23.939Z,0.70
2019-05-07T12:35:25.374Z,0.93
2019-05-07T12:36:26.883Z,0.80
2019-05-07T12:37:28.319Z,1.00
2019-05-07T12:38:29.704Z,0.75
2019-05-07T12:39:31.898Z,0.85
2019-05-07T12:40:33.381Z,0.70
2019-05-07T12:41:34.802Z,0.90
2019-05-07T12:42:36.193Z,0.68
2019-05-07T12:43:37.700Z,0.53
2019-05-07T12:44:39.108Z,0.53
2019-05-07T12:45:42.107Z,0.70
2019-05-07T12:46:43.752Z,0.90
2019-05-07T12:47:45.175Z,0.80
2019-05-07T12:48:46.548Z,0.60
2019-05-07T12:49:47.948Z,0.80
2019-05-07T12:50:49.328Z,0.80
2019-05-07T12:51:52.631Z,1.10
2019-05-07T12:52:55.964Z,0.70
2019-05-07T12:54:05.444Z,1.00
2019-05-07T12:55:08.897Z,1.07
2019-05-07T12:56:10.287Z,0.80
2019-05-07T12:57:11.910Z,0.95
2019-05-07T12:58:13.412Z,0.80
2019-05-07T12:59:14.897Z,0.75
2019-05-07T13:00:39.196Z,0.80
2019-05-07T13:01:42.476Z,0.50
2019-05-07T13:02:52.143Z,0.80
2019-05-07T13:03:55.621Z,0.60
2019-05-07T13:04:58.103Z,0.72
2019-05-07T13:05:59.600Z,0.65
2019-05-07T13:07:03.296Z,0.80
2019-05-07T13:08:04.881Z,0.70
2019-05-07T13:09:06.381Z,0.80
2019-05-07T13:10:09.604Z,0.88
2019-05-07T13:11:13.108Z,0.98
2019-05-07T13:12:14.500Z,0.98
2019-05-07T13:13:15.898Z,0.70
2019-05-07T13:14:17.280Z,0.90
2019-05-07T13:15:24.964Z,1.00
2019-05-07T13:16:26.144Z,0.68
2019-05-07T13:17:27.560Z,0.90
2019-05-07T13:18:29.372Z,1.12
2019-05-07T13:19:32.969Z,0.78
2019-05-07T13:20:34.980Z,1.00
2019-05-07T13:21:47.399Z,1.10
2019-05-07T13:22:42.569Z,1.10
2019-05-07T13:23:43.982Z,1.10
2019-05-07T13:24:45.373Z,1.00
2019-05-07T13:25:46.776Z,0.72
2019-05-07T13:26:48.299Z,0.60
2019-05-07T13:27:52.016Z,1.00
2019-05-07T13:28:53.261Z,0.90
2019-05-07T13:29:54.970Z,0.75
2019-05-07T13:30:56.444Z,1.20
2019-05-07T13:31:58.842Z,1.12
2019-05-07T13:33:03.061Z,1.20
2019-05-07T13:34:04.457Z,1.32
2019-05-07T13:35:06.272Z,1.42
2019-05-07T13:36:07.986Z,1.07
2019-05-07T13:37:26.947Z,1.30
2019-05-07T13:38:32.291Z,1.20
2019-05-07T13:39:36.269Z,1.87
2019-05-07T13:40:52.730Z,1.70
2019-05-07T13:41:56.372Z,1.52
2019-05-07T13:43:16.320Z,2.27
2019-05-07T13:44:19.808Z,1.65
2019-05-07T13:45:23.293Z,1.07
2019-05-07T13:46:25.099Z,1.77
2019-05-07T13:47:28.479Z,1.55
2019-05-07T13:48:31.698Z,1.20
2019-05-07T13:49:33.369Z,1.12
2019-05-07T13:50:34.861Z,1.30
2019-05-07T13:51:36.459Z,1.30
2019-05-07T13:52:38.245Z,1.10
2019-05-07T13:53:39.632Z,1.35
2019-05-07T13:54:41.938Z,1.20
2019-05-07T13:55:43.503Z,1.27
2019-05-07T13:56:45.044Z,1.22
2019-05-07T13:57:46.415Z,1.10
2019-05-07T13:58:47.815Z,1.20
2019-05-07T13:59:49.195Z,1.25
2019-05-07T14:01:08.996Z,1.40
2019-05-07T14:02:15.400Z,1.25
2019-05-07T14:03:15.801Z,1.22
2019-05-07T14:04:17.688Z,1.20
2019-05-07T14:05:19.081Z,1.45
2019-05-07T14:06:39.006Z,1.70
2019-05-07T14:07:41.757Z,1.65
2019-05-07T14:08:44.198Z,1.50
2019-05-07T14:09:45.799Z,1.27
2019-05-07T14:10:47.494Z,1.32